createdAt,value
2018-11-10T00:01:39.214Z,8.16
2018-11-10T00:03:42.266Z,8.13
2018-11-10T00:05:45.301Z,8.16
2018-11-10T00:07:48.709Z,8.17
2018-11-10T00:09:51.702Z,8.11
2018-11-10T00:11:54.700Z,8.10
2018-11-10T00:13:57.720Z,8.18
2018-11-10T00:16:00.771Z,7.97
2018-11-10T00:18:04.309Z,8.02
2018-11-10T00:20:08.935Z,8.13
2018-11-10T00:22:11.951Z,8.05
2018-11-10T00:24:14.943Z,8.02
2018-11-10T00:26:18.000Z,8.01
2018-11-10T00:28:20.999Z,8.20
2018-11-10T00:30:24.139Z,8.27
2018-11-10T00:32:27.153Z,8.23
2018-11-10T00:34:30.196Z,8.24
2018-11-10T00:36:33.212Z,8.21
2018-11-10T00:38:36.497Z,8.17
2018-11-10T00:40:39.600Z,8.29
2018-11-10T00:42:43.624Z,8.22
2018-11-10T00:44:46.684Z,8.06
2018-11-10T00:46:49.725Z,7.99
2018-11-10T00:48:52.792Z,8.00
2018-11-10T00:50:55.843Z,8.02
2018-11-10T00:52:58.868Z,7.99
2018-11-10T00:55:01.937Z,7.74
2018-11-10T00:57:05.061Z,7.92
2018-11-10T00:59:09.906Z,8.05
2018-11-10T01:01:12.986Z,8.03
2018-11-10T01:03:16.097Z,8.08
2018-11-10T01:05:19.181Z,8.12
2018-11-10T01:07:22.217Z,8.00
2018-11-10T01:09:25.222Z,7.87
2018-11-10T01:11:28.293Z,7.87
2018-11-10T01:13:31.289Z,7.86
2018-11-10T01:15:34.299Z,7.74
2018-11-10T01:17:38.688Z,7.73
2018-11-10T01:19:41.718Z,7.70
2018-11-10T01:21:44.789Z,7.60
2018-11-10T01:23:47.829Z,7.49
2018-11-10T01:25:50.843Z,7.37
2018-11-10T01:27:53.843Z,7.16
2018-11-10T01:29:56.893Z,7.00
2018-11-10T01:31:59.941Z,6.95
2018-11-10T01:34:02.971Z,6.85
2018-11-10T01:36:07.725Z,6.74
2018-11-10T01:38:10.753Z,6.80
2018-11-10T01:40:14.373Z,6.85
2018-11-10T01:42:17.763Z,6.83
2018-11-10T01:44:20.765Z,6.80
2018-11-10T01:46:23.772Z,6.67
2018-11-10T01:48:26.805Z,6.64
2018-11-10T01:50:29.811Z,6.72
2018-11-10T01:52:32.852Z,6.74
2018-11-10T01:54:37.382Z,6.78
2018-11-10T01:56:40.381Z,6.77
2018-11-10T01:58:43.511Z,6.78
2018-11-10T02:00:47.116Z,6.72
2018-11-10T02:02:50.155Z,6.61
2018-11-10T02:04:53.232Z,6.61
2018-11-10T02:06:56.249Z,6.54
2018-11-10T02:08:59.311Z,6.47
2018-11-10T02:11:02.338Z,6.30
2018-11-10T02:13:05.708Z,6.15
2018-11-10T02:15:12.544Z,6.15
2018-11-10T02:17:15.560Z,6.20
2018-11-10T02:19:18.649Z,6.12
2018-11-10T02:21:21.702Z,6.04
2018-11-10T02:23:24.789Z,6.05
2018-11-10T02:25:27.893Z,6.31
2018-11-10T02:27:31.121Z,6.28
2018-11-10T02:29:34.161Z,6.33
2018-11-10T02:31:38.807Z,6.42
2018-11-10T02:33:41.846Z,6.44
2018-11-10T02:35:44.851Z,6.12
2018-11-10T02:37:47.865Z,5.90
2018-11-10T02:39:50.969Z,5.76
2018-11-10T02:41:54.029Z,5.72
2018-11-10T02:43:57.102Z,5.64
2018-11-10T02:46:00.117Z,5.62
2018-11-10T02:48:03.120Z,5.71
2018-11-10T02:50:07.926Z,5.96
2018-11-10T02:52:10.973Z,5.66
2018-11-10T02:54:14.015Z,5.56
2018-11-10T02:56:16.981Z,5.55
2018-11-10T02:58:19.997Z,5.61
2018-11-10T03:00:23.129Z,5.63
2018-11-10T03:02:26.105Z,5.73
2018-11-10T03:04:29.104Z,5.66
2018-11-10T03:06:32.161Z,5.81
2018-11-10T03:08:35.161Z,5.80
2018-11-10T03:10:39.896Z,5.72
2018-11-10T03:12:43.079Z,5.85
2018-11-10T03:14:46.147Z,5.92
2018-11-10T03:16:49.143Z,6.14
2018-11-10T03:18:52.485Z,5.99
2018-11-10T03:20:55.481Z,5.64
2018-11-10T03:22:58.467Z,5.48
2018-11-10T03:25:01.729Z,5.32
2018-11-10T03:27:04.944Z,5.17
2018-11-10T03:29:09.746Z,5.08
2018-11-10T03:31:12.811Z,5.10
2018-11-10T03:33:15.944Z,5.22
2018-11-10T03:35:19.032Z,5.03
2018-11-10T03:37:22.105Z,4.99
2018-11-10T03:39:25.207Z,4.95
2018-11-10T03:41:28.305Z,4.94
2018-11-10T03:43:31.400Z,4.75
2018-11-10T03:45:34.455Z,4.78
2018-11-10T03:47:39.489Z,4.60
2018-11-10T03:49:42.562Z,4.57
2018-11-10T03:51:45.666Z,4.43
2018-11-10T03:53:48.666Z,4.51
2018-11-10T03:55:51.735Z,4.51
2018-11-10T03:57:54.815Z,4.44
2018-11-10T03:59:57.905Z,4.57
2018-11-10T04:02:00.945Z,4.54
2018-11-10T04:04:04.122Z,4.79
2018-11-10T04:06:08.904Z,5.10
2018-11-10T04:08:12.730Z,5.01
2018-11-10T04:10:15.772Z,5.05
2018-11-10T04:12:18.880Z,4.97
2018-11-10T04:14:21.907Z,5.24
2018-11-10T04:16:24.975Z,5.22
2018-11-10T04:18:28.344Z,5.12
2018-11-10T04:20:31.351Z,5.03
2018-11-10T04:22:35.245Z,4.97
2018-11-10T04:24:40.037Z,4.91
2018-11-10T04:26:43.100Z,4.85
2018-11-10T04:28:46.542Z,5.06
2018-11-10T04:30:49.578Z,4.96
2018-11-10T04:32:52.632Z,5.11
2018-11-10T04:34:55.704Z,5.27
2018-11-10T04:36:58.782Z,5.24
2018-11-10T04:39:02.219Z,5.24
2018-11-10T04:41:07.563Z,5.35
2018-11-10T04:43:10.659Z,5.23
2018-11-10T04:45:14.021Z,5.12
2018-11-10T04:47:17.085Z,5.12
2018-11-10T04:49:20.124Z,5.00
2018-11-10T04:51:23.192Z,5.07
2018-11-10T04:53:26.290Z,5.00
2018-11-10T04:55:29.331Z,4.93
2018-11-10T04:57:32.414Z,4.79
2018-11-10T04:59:35.669Z,4.65
2018-11-10T05:01:39.798Z,4.59
2018-11-10T05:03:42.984Z,4.55
2018-11-10T05:05:46.077Z,4.59
2018-11-10T05:07:49.115Z,4.54
2018-11-10T05:09:52.155Z,4.49
2018-11-10T05:11:55.642Z,4.39
2018-11-10T05:13:58.680Z,4.27
2018-11-10T05:16:01.805Z,4.14
2018-11-10T05:18:04.996Z,3.92
2018-11-10T05:20:09.435Z,4.19
2018-11-10T05:22:12.532Z,4.32
2018-11-10T05:24:15.691Z,4.40
2018-11-10T05:26:18.717Z,4.32
2018-11-10T05:28:21.756Z,4.29
2018-11-10T05:30:24.777Z,4.43
2018-11-10T05:32:27.822Z,4.52
2018-11-10T05:34:30.840Z,4.63
2018-11-10T05:36:33.806Z,4.86
2018-11-10T05:38:38.206Z,4.92
2018-11-10T05:40:41.198Z,5.01
2018-11-10T05:42:44.269Z,5.09
2018-11-10T05:44:47.336Z,5.37
2018-11-10T05:46:50.309Z,5.35
2018-11-10T05:48:53.379Z,5.44
2018-11-10T05:50:56.459Z,5.60
2018-11-10T05:52:59.486Z,4.95
2018-11-10T05:55:02.457Z,4.67
2018-11-10T05:57:05.642Z,4.43
2018-11-10T05:59:08.786Z,4.40
2018-11-10T06:01:11.802Z,4.31
2018-11-10T06:03:15.349Z,4.28
2018-11-10T06:05:18.392Z,4.39
2018-11-10T06:07:21.396Z,4.37
2018-11-10T06:09:24.622Z,4.36
2018-11-10T06:11:27.586Z,4.45
2018-11-10T06:13:30.619Z,4.66
2018-11-10T06:15:33.606Z,4.72
2018-11-10T06:17:38.486Z,4.92
2018-11-10T06:19:41.865Z,5.05
2018-11-10T06:21:44.911Z,5.22
2018-11-10T06:23:47.941Z,5.00
2018-11-10T06:25:50.994Z,4.93
2018-11-10T06:27:54.027Z,4.89
2018-11-10T06:29:57.072Z,4.87
2018-11-10T06:32:00.113Z,4.95
2018-11-10T06:34:03.134Z,4.87
2018-11-10T06:36:07.991Z,4.85
2018-11-10T06:38:11.069Z,4.97
2018-11-10T06:40:14.200Z,5.00
2018-11-10T06:42:17.243Z,4.98
2018-11-10T06:44:20.266Z,5.09
2018-11-10T06:46:23.342Z,5.20
2018-11-10T06:48:26.451Z,5.26
2018-11-10T06:50:29.483Z,5.40
2018-11-10T06:52:32.589Z,5.46
2018-11-10T06:54:35.657Z,5.47
2018-11-10T06:56:40.583Z,5.46
2018-11-10T06:58:43.645Z,5.46
2018-11-10T07:00:46.712Z,5.42
2018-11-10T07:02:49.824Z,5.47
2018-11-10T07:04:52.874Z,5.55
2018-11-10T07:06:55.878Z,5.63
2018-11-10T07:08:59.012Z,5.63
2018-11-10T07:11:02.124Z,5.59
2018-11-10T07:13:05.761Z,5.57
2018-11-10T07:15:09.228Z,5.17
2018-11-10T07:17:12.295Z,5.73
2018-11-10T07:19:15.418Z,5.67
2018-11-10T07:21:18.529Z,5.68
2018-11-10T07:23:21.840Z,5.84
2018-11-10T07:25:24.925Z,5.95
2018-11-10T07:27:28.170Z,5.82
2018-11-10T07:29:31.236Z,5.92
2018-11-10T07:31:34.327Z,5.95
2018-11-10T07:33:38.413Z,5.90
2018-11-10T07:35:41.536Z,5.98
2018-11-10T07:37:45.473Z,6.07
2018-11-10T07:39:48.627Z,6.17
2018-11-10T07:41:51.997Z,6.31
2018-11-10T07:43:55.111Z,6.26
2018-11-10T07:45:58.573Z,6.22
2018-11-10T07:48:01.967Z,6.35
2018-11-10T07:50:07.734Z,6.40
2018-11-10T07:52:10.822Z,6.44
2018-11-10T07:54:13.926Z,6.46
2018-11-10T07:56:17.121Z,6.63
2018-11-10T07:58:20.368Z,6.69
2018-11-10T08:00:23.486Z,6.74
2018-11-10T08:02:26.563Z,6.63
2018-11-10T08:04:29.728Z,6.72
2018-11-10T08:06:32.760Z,6.95
2018-11-10T08:08:35.890Z,6.93
2018-11-10T08:10:45.002Z,7.06
2018-11-10T08:12:52.330Z,7.06
2018-11-10T08:14:57.638Z,7.31
2018-11-10T08:17:02.834Z,7.28
2018-11-10T08:19:07.215Z,7.39
2018-11-10T08:21:10.318Z,7.45
2018-11-10T08:23:13.415Z,7.60
2018-11-10T08:25:16.576Z,7.51
2018-11-10T08:27:20.425Z,7.56
2018-11-10T08:29:23.482Z,7.55
2018-11-10T08:31:26.741Z,7.65
2018-11-10T08:33:30.148Z,7.61
2018-11-10T08:35:33.246Z,7.68
2018-11-10T08:37:38.161Z,8.00
2018-11-10T08:39:41.240Z,8.00
2018-11-10T08:41:44.368Z,7.97
2018-11-10T08:43:47.967Z,8.04
2018-11-10T08:45:51.093Z,8.13
2018-11-10T08:47:54.445Z,8.22
2018-11-10T08:49:58.880Z,8.21
2018-11-10T08:52:02.021Z,8.33
2018-11-10T08:54:05.479Z,8.40
2018-11-10T08:56:10.088Z,8.66
2018-11-10T08:58:13.204Z,8.57
2018-11-10T09:00:16.325Z,8.75
2018-11-10T09:02:19.500Z,8.72
2018-11-10T09:04:22.587Z,8.84
2018-11-10T09:06:25.694Z,9.01
2018-11-10T09:08:28.896Z,9.28
2018-11-10T09:10:32.039Z,9.41
2018-11-10T09:12:35.145Z,9.25
2018-11-10T09:14:40.083Z,9.52
2018-11-10T09:16:43.641Z,9.61
2018-11-10T09:18:46.753Z,9.70
2018-11-10T09:20:50.032Z,9.80
2018-11-10T09:22:53.189Z,9.93
2018-11-10T09:24:56.335Z,10.03
2018-11-10T09:27:00.123Z,10.18
2018-11-10T09:29:03.273Z,10.27
2018-11-10T09:31:07.580Z,10.29
2018-11-10T09:33:10.767Z,10.33
2018-11-10T09:35:14.579Z,10.41
2018-11-10T09:37:17.780Z,10.54
2018-11-10T09:39:20.909Z,10.63
2018-11-10T09:41:24.917Z,10.79
2018-11-10T09:43:28.068Z,10.99
2018-11-10T09:45:31.236Z,11.15
2018-11-10T09:47:34.404Z,11.14
2018-11-10T09:49:39.027Z,11.26
2018-11-10T09:51:42.130Z,11.31
2018-11-10T09:53:45.275Z,11.42
2018-11-10T09:55:48.625Z,11.40
2018-11-10T09:57:51.740Z,11.58
2018-11-10T09:59:54.875Z,11.70
2018-11-10T10:01:58.463Z,12.05
2018-11-10T10:04:01.237Z,12.14
2018-11-10T10:06:04.525Z,12.26
2018-11-10T10:08:09.176Z,12.35
2018-11-10T10:10:14.333Z,12.22
2018-11-10T10:12:17.704Z,12.50
2018-11-10T10:14:20.796Z,12.62
2018-11-10T10:16:23.962Z,12.68
2018-11-10T10:18:27.489Z,12.81
2018-11-10T10:20:30.605Z,12.93
2018-11-10T10:22:33.660Z,12.85
2018-11-10T10:24:37.837Z,12.94
2018-11-10T10:26:40.897Z,13.19
2018-11-10T10:28:44.059Z,13.25
2018-11-10T10:30:47.092Z,13.20
2018-11-10T10:32:50.188Z,13.25
2018-11-10T10:34:53.511Z,13.15
2018-11-10T10:36:56.578Z,13.34
2018-11-10T10:38:59.632Z,13.61
2018-11-10T10:41:02.734Z,13.74
2018-11-10T10:43:08.882Z,13.98
2018-11-10T10:45:13.263Z,13.95
2018-11-10T10:47:16.393Z,13.89
2018-11-10T10:49:19.647Z,14.16
2018-11-10T10:51:22.680Z,14.30
2018-11-10T10:53:25.737Z,14.20
2018-11-10T10:55:29.774Z,14.37
2018-11-10T10:57:33.079Z,14.48
2018-11-10T10:59:36.191Z,14.64
2018-11-10T11:01:44.903Z,14.51
2018-11-10T11:03:53.665Z,14.78
2018-11-10T11:05:57.844Z,14.90
2018-11-10T11:08:00.998Z,15.19
2018-11-10T11:10:05.510Z,15.20
2018-11-10T11:12:10.571Z,15.16
2018-11-10T11:14:13.620Z,15.46
2018-11-10T11:16:16.708Z,15.38
2018-11-10T11:18:19.867Z,15.39
2018-11-10T11:20:23.579Z,15.62
2018-11-10T11:22:26.815Z,15.59
2018-11-10T11:24:30.278Z,15.83
2018-11-10T11:26:33.418Z,15.89
2018-11-10T11:28:38.371Z,15.86
2018-11-10T11:30:42.617Z,15.86
2018-11-10T11:32:45.763Z,16.08
2018-11-10T11:34:48.870Z,15.96
2018-11-10T11:36:52.030Z,15.86
2018-11-10T11:38:55.147Z,16.17
2018-11-10T11:40:58.225Z,16.27
2018-11-10T11:43:01.492Z,16.24
2018-11-10T11:45:05.717Z,16.36
2018-11-10T11:47:10.080Z,16.46
2018-11-10T11:49:13.304Z,16.48
2018-11-10T11:51:16.379Z,16.46
2018-11-10T11:53:19.750Z,16.44
2018-11-10T11:55:22.841Z,16.29
2018-11-10T11:57:26.059Z,16.05
2018-11-10T11:59:29.112Z,16.13
2018-11-10T12:01:32.197Z,16.03
2018-11-10T12:03:35.293Z,16.25
2018-11-10T12:05:40.111Z,16.09
2018-11-10T12:07:43.495Z,15.80
2018-11-10T12:09:46.657Z,16.14
2018-11-10T12:11:50.172Z,16.01
2018-11-10T12:13:53.215Z,16.27
2018-11-10T12:15:56.294Z,16.36
2018-11-10T12:18:14.477Z,16.25
2018-11-10T12:23:16.986Z,16.57
2018-11-10T12:25:32.700Z,16.48
2018-11-10T12:27:52.443Z,16.73
2018-11-10T12:30:09.105Z,16.47
2018-11-10T12:34:52.069Z,16.34
2018-11-10T12:37:09.967Z,16.58
2018-11-10T12:39:48.560Z,16.78
2018-11-10T12:41:59.014Z,16.85
2018-11-10T12:44:25.819Z,17.01
2018-11-10T12:46:46.398Z,16.91
2018-11-10T12:49:04.964Z,16.90
2018-11-10T12:51:23.547Z,16.95
2018-11-10T12:54:00.593Z,16.96
2018-11-10T12:56:21.096Z,17.08
2018-11-10T12:58:37.850Z,17.14
2018-11-10T13:00:56.456Z,16.72
2018-11-10T13:03:22.638Z,16.93
2018-11-10T13:05:34.040Z,16.93
2018-11-10T13:07:44.894Z,16.86
2018-11-10T13:10:01.571Z,16.77
2018-11-10T13:12:17.261Z,16.66
2018-11-10T13:14:26.285Z,16.62
2018-11-10T13:16:34.307Z,16.60
2018-11-10T13:18:44.993Z,16.38
2018-11-10T13:20:50.433Z,16.60
2018-11-10T13:22:53.617Z,16.64
2018-11-10T13:24:57.603Z,16.33
2018-11-10T13:27:00.825Z,16.23
2018-11-10T13:29:04.054Z,16.44
2018-11-10T13:31:07.422Z,16.34
2018-11-10T13:33:10.720Z,16.37
2018-11-10T13:35:13.972Z,16.39
2018-11-10T13:37:17.230Z,16.31
2018-11-10T13:39:20.574Z,16.15
2018-11-10T13:41:23.812Z,16.27
2018-11-10T13:43:27.139Z,16.28
2018-11-10T13:45:30.351Z,16.36
2018-11-10T13:47:33.874Z,16.36
2018-11-10T13:49:37.165Z,16.33
2018-11-10T13:51:40.567Z,16.09
2018-11-10T13:53:43.760Z,16.10
2018-11-10T13:55:47.083Z,15.78
2018-11-10T13:57:50.515Z,15.54
2018-11-10T13:59:53.937Z,15.43
2018-11-10T14:01:57.152Z,15.43
2018-11-10T14:04:00.396Z,15.39
2018-11-10T14:06:03.633Z,15.47
2018-11-10T14:08:06.878Z,15.31
2018-11-10T14:10:12.219Z,15.29
2018-11-10T14:12:15.486Z,15.38
2018-11-10T14:14:18.717Z,15.41
2018-11-10T14:16:22.048Z,15.43
2018-11-10T14:18:25.213Z,15.20
2018-11-10T14:20:28.539Z,15.15
2018-11-10T14:22:31.932Z,14.97
2018-11-10T14:24:35.240Z,14.98
2018-11-10T14:26:38.442Z,15.08
2018-11-10T14:28:41.821Z,14.73
2018-11-10T14:30:45.204Z,14.76
2018-11-10T14:32:48.619Z,14.73
2018-11-10T14:34:52.135Z,14.90
2018-11-10T14:36:56.500Z,14.85
2018-11-10T14:39:00.262Z,14.65
2018-11-10T14:41:03.994Z,14.47
2018-11-10T14:43:07.283Z,14.40
2018-11-10T14:45:12.058Z,14.37
2018-11-10T14:47:15.318Z,14.27
2018-11-10T14:49:18.949Z,14.33
2018-11-10T14:51:22.090Z,14.28
2018-11-10T14:53:25.336Z,14.28
2018-11-10T14:55:28.926Z,14.22
2018-11-10T14:57:32.137Z,14.17
2018-11-10T14:59:35.559Z,14.03
2018-11-10T15:01:38.767Z,14.18
2018-11-10T15:03:42.211Z,14.03
2018-11-10T15:05:45.549Z,13.83
2018-11-10T15:07:51.472Z,13.86
2018-11-10T15:09:59.243Z,13.80
2018-11-10T15:12:02.706Z,13.75
2018-11-10T15:14:06.732Z,13.62
2018-11-10T15:16:09.989Z,13.55
2018-11-10T15:18:13.398Z,13.46
2018-11-10T15:20:18.337Z,13.52
2018-11-10T15:22:21.471Z,13.36
2018-11-10T15:24:27.093Z,13.42
2018-11-10T15:26:30.456Z,13.28
2018-11-10T15:28:33.630Z,13.27
2018-11-10T15:30:36.991Z,13.27
2018-11-10T15:32:40.832Z,13.23
2018-11-10T15:34:44.202Z,13.18
2018-11-10T15:36:47.677Z,13.07
2018-11-10T15:38:51.009Z,13.05
2018-11-10T15:40:54.179Z,13.05
2018-11-10T15:42:57.413Z,12.95
2018-11-10T15:45:00.600Z,13.10
2018-11-10T15:47:03.897Z,12.97
2018-11-10T15:49:07.153Z,12.79
2018-11-10T15:51:10.309Z,12.88
2018-11-10T15:53:13.597Z,12.75
2018-11-10T15:55:16.935Z,12.75
2018-11-10T15:57:20.254Z,12.72
2018-11-10T15:59:23.535Z,12.63
2018-11-10T16:01:26.727Z,12.49
2018-11-10T16:03:29.956Z,12.52
2018-11-10T16:05:33.154Z,12.47
2018-11-10T16:07:36.356Z,12.39
2018-11-10T16:09:39.507Z,12.39
2018-11-10T16:11:42.761Z,12.43
2018-11-10T16:13:46.057Z,12.46
2018-11-10T16:15:49.205Z,12.38
2018-11-10T16:17:52.512Z,12.24
2018-11-10T16:19:55.824Z,12.18
2018-11-10T16:21:59.035Z,12.11
2018-11-10T16:24:02.217Z,12.11
2018-11-10T16:26:05.850Z,12.17
2018-11-10T16:28:09.074Z,12.10
2018-11-10T16:30:13.911Z,11.96
2018-11-10T16:32:17.486Z,11.90
2018-11-10T16:34:20.709Z,11.96
2018-11-10T16:36:23.905Z,11.88
2018-11-10T16:38:27.131Z,11.92
2018-11-10T16:40:30.444Z,11.85
2018-11-10T16:42:33.706Z,11.80
2018-11-10T16:44:36.940Z,11.75
2018-11-10T16:46:40.209Z,11.71
2018-11-10T16:48:43.783Z,11.68
2018-11-10T16:50:47.065Z,11.65
2018-11-10T16:52:50.242Z,11.55
2018-11-10T16:54:53.559Z,11.42
2018-11-10T16:56:56.699Z,11.32
2018-11-10T16:58:59.958Z,11.31
2018-11-10T17:01:03.155Z,11.30
2018-11-10T17:03:06.712Z,11.33
2018-11-10T17:05:10.317Z,11.24
2018-11-10T17:07:13.493Z,11.21
2018-11-10T17:09:16.610Z,11.22
2018-11-10T17:11:19.799Z,11.28
2018-11-10T17:13:23.006Z,11.28
2018-11-10T17:15:26.169Z,11.29
2018-11-10T17:17:29.429Z,11.20
2018-11-10T17:19:32.614Z,11.31
2018-11-10T17:21:35.898Z,11.32
2018-11-10T17:23:39.089Z,11.26
2018-11-10T17:25:42.257Z,11.21
2018-11-10T17:27:45.504Z,11.18
2018-11-10T17:29:48.684Z,11.10
2018-11-10T17:31:51.842Z,11.15
2018-11-10T17:33:55.053Z,11.16
2018-11-10T17:35:58.276Z,11.15
2018-11-10T17:38:01.530Z,11.06
2018-11-10T17:40:06.053Z,10.98
2018-11-10T17:42:09.240Z,10.99
2018-11-10T17:44:12.490Z,11.02
2018-11-10T17:46:16.000Z,11.00
2018-11-10T17:48:19.193Z,11.11
2018-11-10T17:50:22.447Z,11.05
2018-11-10T17:52:25.774Z,10.96
2018-11-10T17:54:28.982Z,10.86
2018-11-10T17:56:32.147Z,10.84
2018-11-10T17:58:35.564Z,10.78
2018-11-10T18:00:38.740Z,10.77
2018-11-10T18:02:41.984Z,10.84
2018-11-10T18:04:45.283Z,10.75
2018-11-10T18:06:48.533Z,10.70
2018-11-10T18:08:51.780Z,10.68
2018-11-10T18:10:54.991Z,10.70
2018-11-10T18:13:01.217Z,10.60
2018-11-10T18:15:05.150Z,10.56
2018-11-10T18:17:08.360Z,10.65
2018-11-10T18:19:11.625Z,10.55
2018-11-10T18:21:14.843Z,10.56
2018-11-10T18:23:18.063Z,10.59
2018-11-10T18:25:21.436Z,10.65
2018-11-10T18:27:24.609Z,10.64
2018-11-10T18:29:27.824Z,10.72
2018-11-10T18:31:31.067Z,10.79
2018-11-10T18:33:34.399Z,10.73
2018-11-10T18:35:37.643Z,10.68
2018-11-10T18:37:41.572Z,10.73
2018-11-10T18:39:44.868Z,10.82
2018-11-10T18:41:48.224Z,10.71
2018-11-10T18:43:51.505Z,10.67
2018-11-10T18:45:54.715Z,10.67
2018-11-10T18:47:58.055Z,10.64
2018-11-10T18:50:01.425Z,10.72
2018-11-10T18:52:04.671Z,10.62
2018-11-10T18:54:07.992Z,10.62
2018-11-10T18:56:11.240Z,10.53
2018-11-10T18:58:14.495Z,10.57
2018-11-10T19:00:17.690Z,10.48
2018-11-10T19:02:21.254Z,10.43
2018-11-10T19:04:24.508Z,10.42
2018-11-10T19:06:27.815Z,10.42
2018-11-10T19:08:31.005Z,10.39
2018-11-10T19:10:34.183Z,10.38
2018-11-10T19:12:38.021Z,10.41
2018-11-10T19:14:41.237Z,10.31
2018-11-10T19:16:44.362Z,10.31
2018-11-10T19:18:47.659Z,10.17
2018-11-10T19:20:50.821Z,10.22
2018-11-10T19:22:54.059Z,10.27
2018-11-10T19:24:57.449Z,10.22
2018-11-10T19:27:00.618Z,10.21
2018-11-10T19:29:03.887Z,10.06
2018-11-10T19:31:07.067Z,10.14
2018-11-10T19:33:10.255Z,10.15
2018-11-10T19:35:14.314Z,10.04
2018-11-10T19:37:17.462Z,9.93
2018-11-10T19:39:20.607Z,9.94
2018-11-10T19:41:23.866Z,9.99
2018-11-10T19:43:27.050Z,9.94
2018-11-10T19:45:30.201Z,9.99
2018-11-10T19:47:33.421Z,10.07
2018-11-10T19:49:36.597Z,10.11
2018-11-10T19:51:40.180Z,9.94
2018-11-10T19:53:43.931Z,10.03
2018-11-10T19:55:47.242Z,10.07
2018-11-10T19:57:50.556Z,9.89
2018-11-10T19:59:53.819Z,9.95
2018-11-10T20:01:57.067Z,9.76
2018-11-10T20:04:00.359Z,9.80
2018-11-10T20:06:03.699Z,9.82
2018-11-10T20:08:06.956Z,9.75
2018-11-10T20:10:10.978Z,9.77
2018-11-10T20:12:14.297Z,9.80
2018-11-10T20:14:17.595Z,9.82
2018-11-10T20:16:20.905Z,9.84
2018-11-10T20:18:24.176Z,9.83
2018-11-10T20:20:27.806Z,9.71
2018-11-10T20:22:31.093Z,9.77
2018-11-10T20:24:34.403Z,9.79
2018-11-10T20:26:37.721Z,9.83
2018-11-10T20:28:41.085Z,9.79
2018-11-10T20:30:44.420Z,9.70
2018-11-10T20:32:47.830Z,9.74
2018-11-10T20:34:51.133Z,9.72
2018-11-10T20:36:54.352Z,9.79
2018-11-10T20:38:57.668Z,9.87
2018-11-10T20:41:00.871Z,9.78
2018-11-10T20:43:04.476Z,9.77
2018-11-10T20:45:11.052Z,9.74
2018-11-10T20:47:14.326Z,9.63
2018-11-10T20:49:17.744Z,9.65
2018-11-10T20:51:21.073Z,9.55
2018-11-10T20:53:24.351Z,9.59
2018-11-10T20:55:27.651Z,9.53
2018-11-10T20:57:30.896Z,9.46
2018-11-10T20:59:34.227Z,9.45
2018-11-10T21:01:37.516Z,9.49
2018-11-10T21:03:40.865Z,9.53
2018-11-10T21:05:44.121Z,9.42
2018-11-10T21:07:47.510Z,9.50
2018-11-10T21:09:50.717Z,9.51
2018-11-10T21:11:54.196Z,9.53
2018-11-10T21:13:57.895Z,9.56
2018-11-10T21:16:01.127Z,9.46
2018-11-10T21:18:04.441Z,9.45
2018-11-10T21:20:09.183Z,9.41
2018-11-10T21:22:13.174Z,9.40
2018-11-10T21:24:16.512Z,9.45
2018-11-10T21:26:19.787Z,9.39
2018-11-10T21:28:23.315Z,9.38
2018-11-10T21:30:26.486Z,9.34
2018-11-10T21:32:29.655Z,9.33
2018-11-10T21:34:32.853Z,9.32
2018-11-10T21:36:36.093Z,9.28
2018-11-10T21:38:39.290Z,9.14
2018-11-10T21:40:42.606Z,9.13
2018-11-10T21:42:45.911Z,9.15
2018-11-10T21:44:49.212Z,9.13
2018-11-10T21:46:52.472Z,9.14
2018-11-10T21:48:55.755Z,9.07
2018-11-10T21:50:58.993Z,9.07
2018-11-10T21:53:02.258Z,9.05
2018-11-10T21:55:05.625Z,9.01
2018-11-10T21:57:08.795Z,8.99
2018-11-10T21:59:12.003Z,8.97
2018-11-10T22:01:15.314Z,8.95
2018-11-10T22:03:18.538Z,8.93
2018-11-10T22:05:21.774Z,8.91
2018-11-10T22:07:24.941Z,8.93
2018-11-10T22:09:28.601Z,8.95
2018-11-10T22:11:31.996Z,9.02
2018-11-10T22:13:35.288Z,8.98
2018-11-10T22:15:38.535Z,8.88
2018-11-10T22:17:42.687Z,8.83
2018-11-10T22:19:45.965Z,8.81
2018-11-10T22:21:49.200Z,8.81
2018-11-10T22:23:52.468Z,8.64
2018-11-10T22:25:55.664Z,8.73
2018-11-10T22:27:59.091Z,8.79
2018-11-10T22:30:02.334Z,8.74
2018-11-10T22:32:05.604Z,8.68
2018-11-10T22:34:09.013Z,8.71
2018-11-10T22:36:12.253Z,8.91
2018-11-10T22:38:15.445Z,8.79
2018-11-10T22:40:20.037Z,8.83
2018-11-10T22:42:23.215Z,8.96
2018-11-10T22:44:26.469Z,8.98
2018-11-10T22:46:29.648Z,8.82
2018-11-10T22:48:32.850Z,8.76
2018-11-10T22:50:36.145Z,8.75
2018-11-10T22:52:39.331Z,8.76
2018-11-10T22:54:42.689Z,8.65
2018-11-10T22:56:46.058Z,8.71
2018-11-10T22:58:49.296Z,8.85
2018-11-10T23:00:58.216Z,8.68
2018-11-10T23:03:01.817Z,8.92
2018-11-10T23:05:06.484Z,8.94
2018-11-10T23:07:09.723Z,8.95
2018-11-10T23:09:13.006Z,8.89
2018-11-10T23:11:16.252Z,8.81
2018-11-10T23:13:19.544Z,8.84
2018-11-10T23:15:22.835Z,8.81
2018-11-10T23:17:26.120Z,8.81
2018-11-10T23:19:29.416Z,9.03
2018-11-10T23:21:32.638Z,8.89
2018-11-10T23:23:35.940Z,8.81
2018-11-10T23:25:39.151Z,8.89
2018-11-10T23:27:42.441Z,8.86
2018-11-10T23:29:45.818Z,8.88
2018-11-10T23:31:49.082Z,8.81
2018-11-10T23:33:52.369Z,8.83
2018-11-10T23:35:55.705Z,8.83
2018-11-10T23:37:59.052Z,8.82
2018-11-10T23:40:02.286Z,8.82
2018-11-10T23:42:05.735Z,8.73
2018-11-10T23:44:09.700Z,8.72
2018-11-10T23:46:12.952Z,8.65
2018-11-10T23:48:16.266Z,8.58
2018-11-10T23:50:19.530Z,8.66
2018-11-10T23:52:22.799Z,9.08
2018-11-10T23:54:26.035Z,8.78
2018-11-10T23:56:29.292Z,8.55
2018-11-10T23:58:32.864Z,8.59
